createdAt,value
2018-06-22T00:02:24.434Z,94548.11
2018-06-22T00:04:53.061Z,94550.67
2018-06-22T00:07:21.714Z,94541.96
2018-06-22T00:09:50.389Z,94541.33
2018-06-22T00:12:19.022Z,94544.39
2018-06-22T00:14:47.653Z,94541.63
2018-06-22T00:17:16.287Z,94540.16
2018-06-22T00:19:44.894Z,94538.33
2018-06-22T00:22:13.583Z,94527.47
2018-06-22T00:24:42.229Z,94522.05
2018-06-22T00:27:11.814Z,94519.64
2018-06-22T00:29:40.461Z,94517.97
2018-06-22T00:32:09.046Z,94509.45
2018-06-22T00:34:37.703Z,94512.61
2018-06-22T00:37:06.659Z,94513.56
2018-06-22T00:39:35.309Z,94508.46
2018-06-22T00:42:03.963Z,94509.45
2018-06-22T00:44:32.934Z,94512.16
2018-06-22T00:47:01.598Z,94513.41
2018-06-22T00:49:30.293Z,94510.14
2018-06-22T00:51:59.011Z,94506.55
2018-06-22T00:54:27.632Z,94505.60
2018-06-22T00:56:56.297Z,94505.25
2018-06-22T00:59:24.961Z,94504.42
2018-06-22T01:01:53.588Z,94501.95
2018-06-22T01:04:22.239Z,94497.07
2018-06-22T01:06:50.896Z,94495.75
2018-06-22T01:09:19.580Z,94504.95
2018-06-22T01:11:48.228Z,94500.19
2018-06-22T01:14:16.906Z,94499.97
2018-06-22T01:16:45.623Z,94495.61
2018-06-22T01:19:14.266Z,94494.72
2018-06-22T01:21:42.864Z,94490.41
2018-06-22T01:24:11.484Z,94483.25
2018-06-22T01:26:40.106Z,94483.25
2018-06-22T01:29:13.895Z,94486.70
2018-06-22T01:31:42.549Z,94492.02
2018-06-22T01:34:11.182Z,94497.77
2018-06-22T01:36:39.865Z,94496.13
2018-06-22T01:39:09.265Z,94504.20
2018-06-22T01:41:37.915Z,94513.69
2018-06-22T01:44:06.557Z,94515.27
2018-06-22T01:46:35.715Z,94518.20
2018-06-22T01:49:04.652Z,94525.13
2018-06-22T01:51:33.315Z,94519.50
2018-06-22T01:54:02.050Z,94521.69
2018-06-22T01:56:30.714Z,94511.33
2018-06-22T01:58:59.400Z,94511.73
2018-06-22T02:01:28.078Z,94508.61
2018-06-22T02:03:56.778Z,94513.94
2018-06-22T02:06:25.431Z,94510.87
2018-06-22T02:08:54.082Z,94517.32
2018-06-22T02:11:22.762Z,94514.18
2018-06-22T02:13:51.518Z,94515.12
2018-06-22T02:16:20.231Z,94519.36
2018-06-22T02:18:48.859Z,94523.37
2018-06-22T02:21:17.497Z,94523.78
2018-06-22T02:23:46.238Z,94532.34
2018-06-22T02:26:14.905Z,94524.23
2018-06-22T02:28:43.602Z,94522.57
2018-06-22T02:31:12.444Z,94526.52
2018-06-22T02:33:41.282Z,94525.02
2018-06-22T02:36:09.933Z,94529.77
2018-06-22T02:38:38.573Z,94529.68
2018-06-22T02:41:07.488Z,94532.88
2018-06-22T02:43:36.499Z,94530.11
2018-06-22T02:46:05.878Z,94538.06
2018-06-22T02:48:34.552Z,94539.98
2018-06-22T02:51:03.178Z,94542.47
2018-06-22T02:53:31.827Z,94543.78
2018-06-22T02:56:00.783Z,94550.33
2018-06-22T02:58:29.484Z,94545.16
2018-06-22T03:00:58.229Z,94547.07
2018-06-22T03:03:26.867Z,94548.30
2018-06-22T03:05:55.571Z,94545.59
2018-06-22T03:08:24.270Z,94545.52
2018-06-22T03:10:52.946Z,94548.08
2018-06-22T03:13:21.590Z,94552.59
2018-06-22T03:15:50.479Z,94554.65
2018-06-22T03:18:19.174Z,94560.85
2018-06-22T03:20:47.820Z,94559.00
2018-06-22T03:23:16.538Z,94557.03
2018-06-22T03:25:45.145Z,94554.98
2018-06-22T03:28:13.744Z,94555.90
2018-06-22T03:30:42.355Z,94549.11
2018-06-22T03:33:10.980Z,94545.33
2018-06-22T03:35:39.663Z,94548.41
2018-06-22T03:38:08.382Z,94553.18
2018-06-22T03:40:37.034Z,94557.20
2018-06-22T03:43:05.679Z,94556.91
2018-06-22T03:45:34.309Z,94558.44
2018-06-22T03:48:02.966Z,94555.59
2018-06-22T03:50:31.675Z,94552.25
2018-06-22T03:53:00.394Z,94557.36
2018-06-22T03:55:29.081Z,94558.55
2018-06-22T03:57:57.838Z,94548.75
2018-06-22T04:00:26.506Z,94550.36
2018-06-22T04:02:55.142Z,94559.44
2018-06-22T04:05:23.811Z,94550.44
2018-06-22T04:07:52.442Z,94550.09
2018-06-22T04:10:21.112Z,94553.68
2018-06-22T04:12:49.761Z,94548.63
2018-06-22T04:15:18.888Z,94546.73
2018-06-22T04:17:53.659Z,94544.18
2018-06-22T04:20:24.747Z,94532.05
2018-06-22T04:22:53.779Z,94529.35
2018-06-22T04:25:23.433Z,94543.27
2018-06-22T04:27:52.702Z,94547.95
2018-06-22T04:30:21.393Z,94542.82
2018-06-22T04:32:50.749Z,94540.98
2018-06-22T04:35:19.374Z,94544.53
2018-06-22T04:37:48.035Z,94533.64
2018-06-22T04:40:16.695Z,94531.69
2018-06-22T04:42:45.335Z,94530.01
2018-06-22T04:45:14.020Z,94537.50
2018-06-22T04:47:42.685Z,94535.75
2018-06-22T04:50:12.192Z,94536.47
2018-06-22T04:52:40.822Z,94534.66
2018-06-22T04:55:09.672Z,94527.55
2018-06-22T04:57:38.318Z,94530.77
2018-06-22T05:00:07.139Z,94523.78
2018-06-22T05:02:35.793Z,94522.14
2018-06-22T05:05:04.562Z,94521.20
2018-06-22T05:07:33.203Z,94512.86
2018-06-22T05:10:01.875Z,94516.14
2018-06-22T05:12:30.490Z,94511.89
2018-06-22T05:14:59.171Z,94504.95
2018-06-22T05:17:27.805Z,94501.11
2018-06-22T05:19:56.458Z,94497.50
2018-06-22T05:22:25.174Z,94496.82
2018-06-22T05:24:53.876Z,94494.41
2018-06-22T05:27:22.558Z,94491.19
2018-06-22T05:29:51.261Z,94495.64
2018-06-22T05:32:19.953Z,94491.34
2018-06-22T05:34:48.689Z,94486.47
2018-06-22T05:37:17.938Z,94487.84
2018-06-22T05:39:46.669Z,94487.48
2018-06-22T05:42:15.315Z,94485.64
2018-06-22T05:44:43.998Z,94482.89
2018-06-22T05:47:12.618Z,94487.28
2018-06-22T05:49:41.282Z,94485.91
2018-06-22T05:52:09.980Z,94487.09
2018-06-22T05:54:38.631Z,94483.95
2018-06-22T05:57:07.252Z,94484.53
2018-06-22T05:59:35.914Z,94482.90
2018-06-22T06:02:04.517Z,94483.14
2018-06-22T06:04:33.139Z,94480.84
2018-06-22T06:07:01.950Z,94481.80
2018-06-22T06:09:30.591Z,94482.92
2018-06-22T06:11:59.214Z,94479.48
2018-06-22T06:14:27.911Z,94477.77
2018-06-22T06:16:57.617Z,94476.89
2018-06-22T06:19:26.294Z,94476.77
2018-06-22T06:21:54.982Z,94470.61
2018-06-22T06:24:23.664Z,94467.42
2018-06-22T06:26:52.304Z,94468.45
2018-06-22T06:29:20.994Z,94459.00
2018-06-22T06:31:50.276Z,94454.16
2018-06-22T06:34:18.972Z,94456.87
2018-06-22T06:36:47.617Z,94455.80
2018-06-22T06:39:16.345Z,94457.30
2018-06-22T06:41:45.077Z,94458.13
2018-06-22T06:44:13.768Z,94463.83
2018-06-22T06:46:42.671Z,94452.92
2018-06-22T06:49:11.352Z,94456.58
2018-06-22T06:51:40.085Z,94462.68
2018-06-22T06:54:08.723Z,94452.28
2018-06-22T06:56:37.339Z,94449.05
2018-06-22T06:59:06.012Z,94453.19
2018-06-22T07:01:34.698Z,94455.94
2018-06-22T07:04:03.357Z,94455.41
2018-06-22T07:06:31.986Z,94459.63
2018-06-22T07:09:00.690Z,94451.44
2018-06-22T07:11:29.404Z,94448.19
2018-06-22T07:13:58.039Z,94453.08
2018-06-22T07:16:26.683Z,94445.80
2018-06-22T07:18:55.400Z,94451.50
2018-06-22T07:21:24.068Z,94448.34
2018-06-22T07:23:52.783Z,94451.39
2018-06-22T07:26:21.477Z,94447.20
2018-06-22T07:28:50.133Z,94451.53
2018-06-22T07:31:18.791Z,94445.03
2018-06-22T07:33:47.389Z,94445.90
2018-06-22T07:36:16.101Z,94444.83
2018-06-22T07:38:44.754Z,94435.86
2018-06-22T07:41:13.428Z,94436.66
2018-06-22T07:43:42.055Z,94435.30
2018-06-22T07:46:10.703Z,94435.81
2018-06-22T07:48:39.588Z,94431.05
2018-06-22T07:51:08.222Z,94436.63
2018-06-22T07:53:36.851Z,94431.89
2018-06-22T07:56:05.562Z,94424.30
2018-06-22T07:58:34.215Z,94416.13
2018-06-22T08:01:02.848Z,94411.14
2018-06-22T08:03:31.486Z,94411.98
2018-06-22T08:06:00.126Z,94411.44
2018-06-22T08:08:29.686Z,94415.49
2018-06-22T08:10:58.320Z,94415.02
2018-06-22T08:13:27.001Z,94408.66
2018-06-22T08:15:55.738Z,94408.68
2018-06-22T08:18:24.391Z,94413.19
2018-06-22T08:20:53.128Z,94414.80
2018-06-22T08:23:21.830Z,94414.28
2018-06-22T08:25:51.320Z,94414.52
2018-06-22T08:28:19.995Z,94411.93
2018-06-22T08:30:48.667Z,94411.13
2018-06-22T08:33:17.582Z,94406.32
2018-06-22T08:35:46.562Z,94407.13
2018-06-22T08:38:15.195Z,94409.77
2018-06-22T08:40:43.930Z,94406.59
2018-06-22T08:43:13.394Z,94400.73
2018-06-22T08:45:42.031Z,94401.77
2018-06-22T08:48:10.672Z,94400.42
2018-06-22T08:50:39.286Z,94396.68
2018-06-22T08:53:07.937Z,94391.56
2018-06-22T08:55:36.581Z,94388.34
2018-06-22T08:58:05.199Z,94388.67
2018-06-22T09:00:33.853Z,94381.66
2018-06-22T09:03:02.595Z,94387.22
2018-06-22T09:05:31.272Z,94388.19
2018-06-22T09:08:00.032Z,94374.84
2018-06-22T09:10:28.639Z,94375.39
2018-06-22T09:12:57.336Z,94373.98
2018-06-22T09:15:26.006Z,94368.84
2018-06-22T09:17:54.690Z,94366.11
2018-06-22T09:20:23.353Z,94364.20
2018-06-22T09:22:52.219Z,94353.88
2018-06-22T09:25:20.866Z,94353.41
2018-06-22T09:27:49.576Z,94357.62
2018-06-22T09:30:18.273Z,94348.54
2018-06-22T09:32:47.138Z,94349.48
2018-06-22T09:35:15.786Z,94346.96
2018-06-22T09:37:44.460Z,94340.56
2018-06-22T09:40:13.106Z,94339.61
2018-06-22T09:42:41.809Z,94335.05
2018-06-22T09:45:10.489Z,94328.34
2018-06-22T09:47:39.188Z,94323.66
2018-06-22T09:50:07.839Z,94322.09
2018-06-22T09:52:36.592Z,94317.70
2018-06-22T09:55:05.375Z,94318.88
2018-06-22T09:57:33.964Z,94312.45
2018-06-22T10:00:02.669Z,94305.61
2018-06-22T10:02:31.351Z,94295.73
2018-06-22T10:04:59.951Z,94296.51
2018-06-22T10:07:28.579Z,94292.55
2018-06-22T10:09:57.345Z,94287.83
2018-06-22T10:12:26.673Z,94283.73
2018-06-22T10:14:55.326Z,94282.92
2018-06-22T10:17:23.932Z,94281.38
2018-06-22T10:19:52.618Z,94282.71
2018-06-22T10:22:21.229Z,94273.51
2018-06-22T10:24:49.883Z,94280.80
2018-06-22T10:27:18.610Z,94279.33
2018-06-22T10:29:47.341Z,94275.24
2018-06-22T10:32:16.440Z,94267.47
2018-06-22T10:34:45.127Z,94266.87
2018-06-22T10:37:13.802Z,94262.72
2018-06-22T10:39:42.489Z,94263.05
2018-06-22T10:42:11.135Z,94257.16
2018-06-22T10:44:39.895Z,94254.33
2018-06-22T10:47:08.608Z,94253.69
2018-06-22T10:49:37.388Z,94256.49
2018-06-22T10:52:06.066Z,94249.38
2018-06-22T10:54:34.719Z,94247.52
2018-06-22T10:57:03.413Z,94250.88
2018-06-22T10:59:32.814Z,94248.34
2018-06-22T11:02:01.503Z,94247.02
2018-06-22T11:04:30.126Z,94241.53
2018-06-22T11:06:58.825Z,94240.25
2018-06-22T11:09:27.478Z,94233.31
2018-06-22T11:11:56.261Z,94228.19
2018-06-22T11:14:25.097Z,94234.42
2018-06-22T11:16:53.739Z,94230.61
2018-06-22T11:19:22.386Z,94236.92
2018-06-22T11:21:51.046Z,94243.12
2018-06-22T11:24:19.706Z,94267.66
2018-06-22T11:26:48.309Z,94269.73
2018-06-22T11:29:16.933Z,94274.14
2018-06-22T11:31:45.573Z,94286.41
2018-06-22T11:34:14.669Z,94319.06
2018-06-22T11:36:43.284Z,94296.85
2018-06-22T11:39:12.559Z,94263.33
2018-06-22T11:41:41.964Z,94268.70
2018-06-22T11:44:11.093Z,94267.79
2018-06-22T11:46:40.252Z,94283.66
2018-06-22T11:49:09.078Z,94274.21
2018-06-22T11:51:37.678Z,94279.20
2018-06-22T11:54:06.395Z,94286.27
2018-06-22T11:56:35.026Z,94305.98
2018-06-22T11:59:03.717Z,94334.98
2018-06-22T12:01:32.338Z,94350.21
2018-06-22T12:04:01.007Z,94350.70
2018-06-22T12:06:29.674Z,94350.48
2018-06-22T12:08:58.357Z,94347.72
2018-06-22T12:11:27.024Z,94345.29
2018-06-22T12:13:55.639Z,94336.36
2018-06-22T12:16:24.468Z,94327.50
2018-06-22T12:18:53.119Z,94319.78
2018-06-22T12:21:21.782Z,94309.91
2018-06-22T12:23:50.464Z,94291.20
2018-06-22T12:26:19.120Z,94277.23
2018-06-22T12:28:47.722Z,94277.28
2018-06-22T12:31:16.400Z,94297.41
2018-06-22T12:33:45.088Z,94318.00
2018-06-22T12:36:13.746Z,94317.52
2018-06-22T12:38:43.403Z,94318.02
2018-06-22T12:41:12.033Z,94325.94
2018-06-22T12:43:40.747Z,94324.65
2018-06-22T12:46:09.390Z,94327.41
2018-06-22T12:48:38.066Z,94318.88
2018-06-22T12:51:07.288Z,94315.98
2018-06-22T12:53:36.536Z,94315.52
2018-06-22T12:56:05.662Z,94309.06
2018-06-22T12:58:34.278Z,94312.33
2018-06-22T13:01:03.650Z,94304.18
2018-06-22T13:03:32.269Z,94304.55
2018-06-22T13:06:00.924Z,94296.34
2018-06-22T13:08:29.563Z,94302.34
2018-06-22T13:10:58.224Z,94300.52
2018-06-22T13:13:26.849Z,94289.61
2018-06-22T13:15:55.487Z,94288.62
2018-06-22T13:18:24.084Z,94282.80
2018-06-22T13:20:52.739Z,94283.04
2018-06-22T13:23:21.332Z,94285.16
2018-06-22T13:25:50.043Z,94285.92
2018-06-22T13:28:18.951Z,94282.75
2018-06-22T13:30:47.787Z,94285.09
2018-06-22T13:33:16.519Z,94283.78
2018-06-22T13:35:45.180Z,94278.20
2018-06-22T13:38:13.815Z,94280.78
2018-06-22T13:40:42.445Z,94283.98
2018-06-22T13:43:11.080Z,94287.13
2018-06-22T13:45:39.818Z,94289.75
2018-06-22T13:48:08.916Z,94288.66
2018-06-22T13:50:37.963Z,94293.04
2018-06-22T13:53:06.908Z,94276.22
2018-06-22T13:55:35.543Z,94268.99
2018-06-22T13:58:04.276Z,94264.62
2018-06-22T14:00:32.976Z,94258.36
2018-06-22T14:03:01.612Z,94266.27
2018-06-22T14:05:35.459Z,94267.32
2018-06-22T14:08:04.190Z,94275.27
2018-06-22T14:10:33.042Z,94270.78
2018-06-22T14:13:01.731Z,94268.90
2018-06-22T14:15:30.397Z,94257.73
2018-06-22T14:17:59.026Z,94251.77
2018-06-22T14:20:27.661Z,94251.16
2018-06-22T14:22:56.326Z,94252.72
2018-06-22T14:25:25.069Z,94252.16
2018-06-22T14:27:53.718Z,94258.04
2018-06-22T14:30:22.434Z,94262.05
2018-06-22T14:32:51.118Z,94262.83
2018-06-22T14:35:20.210Z,94260.69
2018-06-22T14:37:48.932Z,94259.34
2018-06-22T14:40:17.720Z,94253.81
2018-06-22T14:42:46.433Z,94247.68
2018-06-22T14:45:15.228Z,94244.50
2018-06-22T14:47:43.822Z,94245.05
2018-06-22T14:50:17.782Z,94245.05
2018-06-22T14:52:47.038Z,94241.84
2018-06-22T14:55:20.670Z,94250.59
2018-06-22T14:57:54.425Z,94253.55
2018-06-22T15:00:28.353Z,94261.78
2018-06-22T15:03:02.200Z,94259.69
2018-06-22T15:05:36.051Z,94251.66
2018-06-22T15:08:06.435Z,94245.01
2018-06-22T15:10:35.053Z,94243.66
2018-06-22T15:13:03.655Z,94243.62
2018-06-22T15:15:32.322Z,94263.47
2018-06-22T15:18:01.052Z,94305.48
2018-06-22T15:20:29.776Z,94324.11
2018-06-22T15:22:58.494Z,94324.49
2018-06-22T15:25:27.222Z,94323.23
2018-06-22T15:27:55.859Z,94316.48
2018-06-22T15:30:24.672Z,94317.23
2018-06-22T15:32:53.332Z,94324.10
2018-06-22T15:35:27.334Z,94328.33
2018-06-22T15:38:01.160Z,94340.54
2018-06-22T15:40:35.096Z,94360.64
2018-06-22T15:43:09.270Z,94364.30
2018-06-22T15:45:43.210Z,94370.86
2018-06-22T15:48:17.037Z,94375.92
2018-06-22T15:50:50.950Z,94361.10
2018-06-22T15:53:24.857Z,94377.69
2018-06-22T15:55:57.605Z,94374.34
2018-06-22T15:58:26.285Z,94367.02
2018-06-22T16:00:54.957Z,94364.55
2018-06-22T16:03:28.773Z,94369.41
2018-06-22T16:05:57.392Z,94376.22
2018-06-22T16:08:26.058Z,94373.82
2018-06-22T16:10:54.738Z,94372.89
2018-06-22T16:13:23.480Z,94368.45
2018-06-22T16:15:57.271Z,94363.93
2018-06-22T16:18:31.043Z,94366.13
2018-06-22T16:21:04.917Z,94360.77
2018-06-22T16:23:38.746Z,94360.64
2018-06-22T16:26:12.695Z,94353.71
2018-06-22T16:28:41.409Z,94354.34
2018-06-22T16:31:10.037Z,94351.79
2018-06-22T16:33:42.774Z,94349.09
2018-06-22T16:36:11.743Z,94341.47
2018-06-22T16:38:40.356Z,94332.27
2018-06-22T16:41:09.010Z,94332.67
2018-06-22T16:43:37.624Z,94315.49
2018-06-22T16:46:06.358Z,94308.17
2018-06-22T16:48:34.984Z,94321.98
2018-06-22T16:51:03.721Z,94333.14
2018-06-22T16:53:32.399Z,94328.48
2018-06-22T16:56:01.048Z,94324.27
2018-06-22T16:58:34.966Z,94318.17
2018-06-22T17:01:03.670Z,94316.86
2018-06-22T17:03:32.353Z,94318.62
2018-06-22T17:06:01.147Z,94315.75
2018-06-22T17:08:34.920Z,94315.95
2018-06-22T17:11:08.856Z,94316.45
2018-06-22T17:13:42.884Z,94314.72
2018-06-22T17:16:16.805Z,94317.06
2018-06-22T17:18:51.587Z,94321.72
2018-06-22T17:21:21.018Z,94325.59
2018-06-22T17:23:49.673Z,94329.88
2018-06-22T17:26:18.301Z,94332.19
2018-06-22T17:28:46.985Z,94331.98
2018-06-22T17:31:15.735Z,94333.88
2018-06-22T17:33:44.436Z,94339.95
2018-06-22T17:36:13.167Z,94336.77
2018-06-22T17:38:41.776Z,94339.86
2018-06-22T17:41:10.450Z,94334.16
2018-06-22T17:43:39.148Z,94353.11
2018-06-22T17:46:07.892Z,94349.02
2018-06-22T17:48:36.567Z,94351.22
2018-06-22T17:51:05.311Z,94342.43
2018-06-22T17:53:33.983Z,94352.20
2018-06-22T17:56:02.604Z,94349.84
2018-06-22T17:58:31.205Z,94359.01
2018-06-22T18:01:05.083Z,94359.53
2018-06-22T18:03:38.945Z,94354.80
2018-06-22T18:06:12.816Z,94357.48
2018-06-22T18:08:46.449Z,94362.02
2018-06-22T18:11:20.166Z,94355.19
2018-06-22T18:13:54.803Z,94353.03
2018-06-22T18:16:23.499Z,94356.01
2018-06-22T18:18:52.245Z,94354.41
2018-06-22T18:21:21.426Z,94363.52
2018-06-22T18:23:50.126Z,94366.16
2018-06-22T18:26:18.858Z,94366.92
2018-06-22T18:28:47.519Z,94372.39
2018-06-22T18:31:16.147Z,94379.08
2018-06-22T18:33:44.763Z,94382.97
2018-06-22T18:36:14.059Z,94398.16
2018-06-22T18:38:42.776Z,94402.82
2018-06-22T18:41:11.427Z,94408.13
2018-06-22T18:43:45.315Z,94405.20
2018-06-22T18:46:13.970Z,94412.25
2018-06-22T18:48:42.659Z,94415.78
2018-06-22T18:51:11.486Z,94423.50
2018-06-22T18:53:45.359Z,94426.38
2018-06-22T18:56:19.060Z,94428.16
2018-06-22T18:58:52.838Z,94429.22
2018-06-22T19:01:26.671Z,94428.80
2018-06-22T19:03:55.574Z,94431.66
2018-06-22T19:06:24.303Z,94438.66
2018-06-22T19:08:52.991Z,94434.95
2018-06-22T19:11:21.721Z,94438.66
2018-06-22T19:13:50.434Z,94433.86
2018-06-22T19:16:19.091Z,94422.25
2018-06-22T19:18:47.898Z,94425.38
2018-06-22T19:21:16.498Z,94431.45
2018-06-22T19:23:45.233Z,94434.88
2018-06-22T19:26:14.041Z,94441.52
2018-06-22T19:28:42.679Z,94437.80
2018-06-22T19:31:11.372Z,94435.54
2018-06-22T19:33:40.054Z,94441.23
2018-06-22T19:36:08.758Z,94451.02
2018-06-22T19:38:37.511Z,94454.91
2018-06-22T19:41:06.180Z,94459.21
2018-06-22T19:43:39.978Z,94465.36
2018-06-22T19:46:13.879Z,94470.03
2018-06-22T19:48:47.782Z,94477.48
2018-06-22T19:51:22.195Z,94479.81
2018-06-22T19:53:55.905Z,94468.44
2018-06-22T19:56:24.592Z,94467.42
2018-06-22T19:58:53.290Z,94474.32
2018-06-22T20:01:22.082Z,94470.11
2018-06-22T20:03:50.795Z,94476.02
2018-06-22T20:06:19.805Z,94473.25
2018-06-22T20:08:48.816Z,94467.70
2018-06-22T20:11:17.508Z,94473.67
2018-06-22T20:13:46.524Z,94475.59
2018-06-22T20:16:15.705Z,94476.41
2018-06-22T20:18:44.515Z,94478.88
2018-06-22T20:21:13.766Z,94480.98
2018-06-22T20:23:42.426Z,94489.25
2018-06-22T20:26:11.086Z,94473.05
2018-06-22T20:28:39.758Z,94499.51
2018-06-22T20:31:08.547Z,94497.02
2018-06-22T20:33:37.402Z,94511.67
2018-06-22T20:36:11.317Z,94501.62
2018-06-22T20:38:45.211Z,94519.13
2018-06-22T20:41:21.386Z,94514.39
2018-06-22T20:43:55.230Z,94538.09
2018-06-22T20:46:29.012Z,94526.77
2018-06-22T20:49:02.702Z,94553.48
2018-06-22T20:51:46.866Z,94550.06
2018-06-22T20:54:15.522Z,94543.49
2018-06-22T20:56:44.190Z,94549.38
2018-06-22T20:59:12.825Z,94541.59
2018-06-22T21:01:41.535Z,94553.28
2018-06-22T21:04:10.166Z,94570.77
2018-06-22T21:06:39.188Z,94589.39
2018-06-22T21:09:09.096Z,94561.73
2018-06-22T21:11:37.786Z,94569.74
2018-06-22T21:14:06.577Z,94574.69
2018-06-22T21:16:35.799Z,94575.83
2018-06-22T21:19:04.444Z,94561.77
2018-06-22T21:21:38.204Z,94586.11
2018-06-22T21:24:06.824Z,94565.87
2018-06-22T21:26:35.552Z,94586.64
2018-06-22T21:29:09.448Z,94577.55
2018-06-22T21:31:43.324Z,94579.71
2018-06-22T21:34:17.229Z,94584.16
2018-06-22T21:36:50.934Z,94594.12
2018-06-22T21:39:19.724Z,94579.17
2018-06-22T21:41:48.357Z,94586.75
2018-06-22T21:44:17.049Z,94601.06
2018-06-22T21:46:45.757Z,94608.50
2018-06-22T21:49:14.419Z,94606.66
2018-06-22T21:51:43.061Z,94604.98
2018-06-22T21:54:12.433Z,94620.66
2018-06-22T21:56:41.058Z,94587.36
2018-06-22T21:59:09.757Z,94592.73
2018-06-22T22:01:38.531Z,94617.33
2018-06-22T22:04:07.123Z,94645.31
2018-06-22T22:06:35.828Z,94611.12
2018-06-22T22:09:06.378Z,94601.89
2018-06-22T22:11:40.157Z,94631.25
2018-06-22T22:14:08.861Z,94621.86
2018-06-22T22:16:37.451Z,94620.50
2018-06-22T22:19:06.090Z,94637.25
2018-06-22T22:21:34.936Z,94632.94
2018-06-22T22:24:03.730Z,94624.81
2018-06-22T22:26:32.432Z,94640.44
2018-06-22T22:29:01.070Z,94630.41
2018-06-22T22:31:29.869Z,94635.28
2018-06-22T22:33:58.511Z,94650.52
2018-06-22T22:36:27.185Z,94638.50
2018-06-22T22:38:55.982Z,94654.56
2018-06-22T22:41:24.617Z,94644.35
2018-06-22T22:43:53.282Z,94640.84
2018-06-22T22:46:22.052Z,94655.94
2018-06-22T22:48:50.667Z,94673.67
2018-06-22T22:51:19.455Z,94671.45
2018-06-22T22:53:48.123Z,94655.19
2018-06-22T22:56:16.792Z,94663.73
2018-06-22T22:58:45.456Z,94660.44
2018-06-22T23:01:14.176Z,94649.69
2018-06-22T23:03:42.886Z,94654.16
2018-06-22T23:06:11.528Z,94648.63
2018-06-22T23:08:40.280Z,94645.52
2018-06-22T23:11:09.013Z,94646.05
2018-06-22T23:13:37.750Z,94671.31
2018-06-22T23:16:06.647Z,94651.64
2018-06-22T23:18:35.291Z,94674.28
2018-06-22T23:21:04.033Z,94668.20
2018-06-22T23:23:37.536Z,94654.48
2018-06-22T23:26:06.542Z,94661.29
2018-06-22T23:28:35.249Z,94659.34
2018-06-22T23:31:05.196Z,94664.00
2018-06-22T23:33:34.191Z,94652.67
2018-06-22T23:36:03.846Z,94661.47
2018-06-22T23:38:33.087Z,94654.30
2018-06-22T23:41:01.732Z,94650.06
2018-06-22T23:43:30.642Z,94663.89
2018-06-22T23:45:59.290Z,94678.41
2018-06-22T23:48:27.901Z,94677.42
2018-06-22T23:50:56.547Z,94681.98
2018-06-22T23:53:25.182Z,94695.92
2018-06-22T23:55:53.850Z,94698.28
2018-06-22T23:58:22.543Z,94682.39
